sensor_id;sensor_type;location;lat;lon;timestamp;P1;durP1;ratioP1;P2;durP2;ratioP2
19675;SDS011;39539;52.202;9.876;2023-08-31T00:00:42;14.68;;;13.57;;
19675;SDS011;39539;52.202;9.876;2023-08-31T00:03:11;15.70;;;14.45;;
19675;SDS011;39539;52.202;9.876;2023-08-31T00:05:37;14.52;;;13.40;;
19675;SDS011;39539;52.202;9.876;2023-08-31T00:08:05;14.13;;;12.75;;
19675;SDS011;39539;52.202;9.876;2023-08-31T00:10:31;13.90;;;12.90;;
19675;SDS011;39539;52.202;9.876;2023-08-31T00:12:56;13.95;;;12.65;;
19675;SDS011;39539;52.202;9.876;2023-08-31T00:15:22;14.13;;;13.05;;
19675;SDS011;39539;52.202;9.876;2023-08-31T00:17:48;14.55;;;13.18;;
19675;SDS011;39539;52.202;9.876;2023-08-31T00:20:15;15.32;;;14.18;;
19675;SDS011;39539;52.202;9.876;2023-08-31T00:22:40;15.60;;;14.40;;
19675;SDS011;39539;52.202;9.876;2023-08-31T00:25:05;15.40;;;14.30;;
19675;SDS011;39539;52.202;9.876;2023-08-31T00:27:33;15.80;;;14.55;;
19675;SDS011;39539;52.202;9.876;2023-08-31T00:29:59;15.60;;;14.50;;
19675;SDS011;39539;52.202;9.876;2023-08-31T00:32:24;16.83;;;15.38;;
19675;SDS011;39539;52.202;9.876;2023-08-31T00:34:50;15.65;;;14.48;;
19675;SDS011;39539;52.202;9.876;2023-08-31T00:37:15;17.73;;;16.33;;
19675;SDS011;39539;52.202;9.876;2023-08-31T00:39:41;17.63;;;16.17;;
19675;SDS011;39539;52.202;9.876;2023-08-31T00:42:06;18.10;;;16.80;;
19675;SDS011;39539;52.202;9.876;2023-08-31T00:44:32;19.38;;;17.98;;
19675;SDS011;39539;52.202;9.876;2023-08-31T00:46:58;19.40;;;17.52;;
19675;SDS011;39539;52.202;9.876;2023-08-31T00:49:23;18.73;;;17.33;;
19675;SDS011;39539;52.202;9.876;2023-08-31T00:51:49;17.92;;;16.50;;
19675;SDS011;39539;52.202;9.876;2023-08-31T00:54:19;18.65;;;17.15;;
19675;SDS011;39539;52.202;9.876;2023-08-31T00:56:46;16.65;;;15.48;;
19675;SDS011;39539;52.202;9.876;2023-08-31T00:59:11;17.70;;;16.20;;
19675;SDS011;39539;52.202;9.876;2023-08-31T01:01:37;18.17;;;16.55;;
19675;SDS011;39539;52.202;9.876;2023-08-31T01:07:01;18.17;;;16.73;;
19675;SDS011;39539;52.202;9.876;2023-08-31T01:09:36;19.08;;;17.70;;
19675;SDS011;39539;52.202;9.876;2023-08-31T01:15:13;20.65;;;19.02;;
19675;SDS011;39539;52.202;9.876;2023-08-31T01:17:37;19.52;;;18.05;;
19675;SDS011;39539;52.202;9.876;2023-08-31T01:20:14;21.45;;;19.75;;
19675;SDS011;39539;52.202;9.876;2023-08-31T01:23:04;20.83;;;19.35;;
19675;SDS011;39539;52.202;9.876;2023-08-31T01:25:40;19.75;;;18.30;;
19675;SDS011;39539;52.202;9.876;2023-08-31T01:28:08;18.42;;;17.05;;
19675;SDS011;39539;52.202;9.876;2023-08-31T01:30:33;18.00;;;16.60;;
19675;SDS011;39539;52.202;9.876;2023-08-31T01:32:59;18.30;;;16.90;;
19675;SDS011;39539;52.202;9.876;2023-08-31T01:35:25;18.52;;;17.05;;
19675;SDS011;39539;52.202;9.876;2023-08-31T01:37:59;18.60;;;17.10;;
19675;SDS011;39539;52.202;9.876;2023-08-31T01:42:58;17.45;;;16.15;;
19675;SDS011;39539;52.202;9.876;2023-08-31T01:45:26;18.75;;;17.15;;
19675;SDS011;39539;52.202;9.876;2023-08-31T01:47:51;17.67;;;16.27;;
19675;SDS011;39539;52.202;9.876;2023-08-31T01:50:17;19.08;;;17.65;;
19675;SDS011;39539;52.202;9.876;2023-08-31T01:52:43;19.17;;;17.58;;
19675;SDS011;39539;52.202;9.876;2023-08-31T01:55:08;19.20;;;17.80;;
19675;SDS011;39539;52.202;9.876;2023-08-31T01:57:34;18.92;;;17.52;;
19675;SDS011;39539;52.202;9.876;2023-08-31T01:59:59;18.80;;;17.42;;
19675;SDS011;39539;52.202;9.876;2023-08-31T02:02:25;19.98;;;18.38;;
19675;SDS011;39539;52.202;9.876;2023-08-31T02:04:50;19.67;;;17.83;;
19675;SDS011;39539;52.202;9.876;2023-08-31T02:07:16;20.40;;;18.35;;
19675;SDS011;39539;52.202;9.876;2023-08-31T02:09:42;20.60;;;18.98;;
19675;SDS011;39539;52.202;9.876;2023-08-31T02:12:08;21.50;;;19.52;;
19675;SDS011;39539;52.202;9.876;2023-08-31T02:14:34;20.85;;;18.92;;
19675;SDS011;39539;52.202;9.876;2023-08-31T02:17:00;22.33;;;20.00;;
19675;SDS011;39539;52.202;9.876;2023-08-31T02:19:26;19.92;;;18.42;;
19675;SDS011;39539;52.202;9.876;2023-08-31T02:21:51;20.40;;;18.70;;
19675;SDS011;39539;52.202;9.876;2023-08-31T02:24:16;20.67;;;18.92;;
19675;SDS011;39539;52.202;9.876;2023-08-31T02:26:42;22.60;;;20.60;;
19675;SDS011;39539;52.202;9.876;2023-08-31T02:29:07;21.60;;;19.67;;
19675;SDS011;39539;52.202;9.876;2023-08-31T02:31:33;21.95;;;20.13;;
19675;SDS011;39539;52.202;9.876;2023-08-31T02:33:59;21.83;;;19.85;;
19675;SDS011;39539;52.202;9.876;2023-08-31T02:36:24;23.67;;;21.40;;
19675;SDS011;39539;52.202;9.876;2023-08-31T02:38:49;21.95;;;20.05;;
19675;SDS011;39539;52.202;9.876;2023-08-31T02:41:15;21.52;;;19.77;;
19675;SDS011;39539;52.202;9.876;2023-08-31T02:43:42;23.83;;;21.40;;
19675;SDS011;39539;52.202;9.876;2023-08-31T02:46:07;23.13;;;20.45;;
19675;SDS011;39539;52.202;9.876;2023-08-31T02:48:33;24.13;;;21.70;;
19675;SDS011;39539;52.202;9.876;2023-08-31T02:50:58;22.75;;;20.65;;
19675;SDS011;39539;52.202;9.876;2023-08-31T02:53:26;23.13;;;20.95;;
19675;SDS011;39539;52.202;9.876;2023-08-31T02:55:52;23.95;;;21.73;;
19675;SDS011;39539;52.202;9.876;2023-08-31T02:58:18;21.33;;;19.58;;
19675;SDS011;39539;52.202;9.876;2023-08-31T03:00:44;22.40;;;20.45;;
19675;SDS011;39539;52.202;9.876;2023-08-31T03:03:12;22.48;;;20.65;;
19675;SDS011;39539;52.202;9.876;2023-08-31T03:05:38;22.55;;;20.40;;
19675;SDS011;39539;52.202;9.876;2023-08-31T03:08:03;21.65;;;19.70;;
19675;SDS011;39539;52.202;9.876;2023-08-31T03:10:29;22.10;;;20.10;;
19675;SDS011;39539;52.202;9.876;2023-08-31T03:12:54;22.08;;;19.20;;
19675;SDS011;39539;52.202;9.876;2023-08-31T03:15:20;20.90;;;19.08;;
19675;SDS011;39539;52.202;9.876;2023-08-31T03:17:45;21.30;;;19.48;;
19675;SDS011;39539;52.202;9.876;2023-08-31T03:20:10;20.92;;;19.05;;
19675;SDS011;39539;52.202;9.876;2023-08-31T03:22:36;19.83;;;18.20;;
19675;SDS011;39539;52.202;9.876;2023-08-31T03:25:01;19.30;;;17.77;;
19675;SDS011;39539;52.202;9.876;2023-08-31T03:27:26;19.35;;;17.77;;
19675;SDS011;39539;52.202;9.876;2023-08-31T03:29:52;18.17;;;16.35;;
19675;SDS011;39539;52.202;9.876;2023-08-31T03:32:18;18.95;;;17.38;;
19675;SDS011;39539;52.202;9.876;2023-08-31T03:34:45;19.45;;;17.88;;
19675;SDS011;39539;52.202;9.876;2023-08-31T03:37:10;19.25;;;17.42;;
19675;SDS011;39539;52.202;9.876;2023-08-31T03:39:35;19.90;;;18.35;;
19675;SDS011;39539;52.202;9.876;2023-08-31T03:42:02;19.65;;;18.10;;
19675;SDS011;39539;52.202;9.876;2023-08-31T03:44:27;19.25;;;17.63;;
19675;SDS011;39539;52.202;9.876;2023-08-31T03:46:53;18.75;;;17.00;;
19675;SDS011;39539;52.202;9.876;2023-08-31T03:49:18;17.05;;;15.80;;
19675;SDS011;39539;52.202;9.876;2023-08-31T03:51:43;17.50;;;16.08;;
19675;SDS011;39539;52.202;9.876;2023-08-31T03:54:08;17.50;;;16.05;;
19675;SDS011;39539;52.202;9.876;2023-08-31T03:56:34;17.38;;;16.00;;
19675;SDS011;39539;52.202;9.876;2023-08-31T03:59:01;16.30;;;15.00;;
19675;SDS011;39539;52.202;9.876;2023-08-31T04:01:28;17.65;;;16.00;;
19675;SDS011;39539;52.202;9.876;2023-08-31T04:03:54;17.52;;;15.98;;
19675;SDS011;39539;52.202;9.876;2023-08-31T04:06:19;16.83;;;15.27;;
19675;SDS011;39539;52.202;9.876;2023-08-31T04:08:44;17.40;;;15.70;;
19675;SDS011;39539;52.202;9.876;2023-08-31T04:11:10;17.92;;;16.23;;
19675;SDS011;39539;52.202;9.876;2023-08-31T04:13:35;19.83;;;17.73;;
19675;SDS011;39539;52.202;9.876;2023-08-31T04:16:00;18.30;;;16.80;;
19675;SDS011;39539;52.202;9.876;2023-08-31T04:18:26;17.92;;;16.20;;
19675;SDS011;39539;52.202;9.876;2023-08-31T04:20:53;18.92;;;17.27;;
19675;SDS011;39539;52.202;9.876;2023-08-31T04:23:19;18.77;;;17.13;;
19675;SDS011;39539;52.202;9.876;2023-08-31T04:25:45;17.88;;;16.27;;
19675;SDS011;39539;52.202;9.876;2023-08-31T04:28:13;18.25;;;16.75;;
19675;SDS011;39539;52.202;9.876;2023-08-31T04:30:39;18.15;;;16.63;;
19675;SDS011;39539;52.202;9.876;2023-08-31T04:33:05;18.65;;;16.98;;
19675;SDS011;39539;52.202;9.876;2023-08-31T04:35:32;18.90;;;17.20;;
19675;SDS011;39539;52.202;9.876;2023-08-31T04:37:57;17.63;;;16.13;;
19675;SDS011;39539;52.202;9.876;2023-08-31T04:40:23;17.70;;;16.10;;
19675;SDS011;39539;52.202;9.876;2023-08-31T04:42:49;19.35;;;17.48;;
19675;SDS011;39539;52.202;9.876;2023-08-31T04:45:14;19.58;;;17.70;;
19675;SDS011;39539;52.202;9.876;2023-08-31T04:47:40;18.52;;;16.92;;
19675;SDS011;39539;52.202;9.876;2023-08-31T04:50:05;20.67;;;18.83;;
19675;SDS011;39539;52.202;9.876;2023-08-31T04:52:31;20.42;;;18.42;;
19675;SDS011;39539;52.202;9.876;2023-08-31T04:54:57;21.08;;;19.17;;
19675;SDS011;39539;52.202;9.876;2023-08-31T04:57:22;21.17;;;19.17;;
19675;SDS011;39539;52.202;9.876;2023-08-31T04:59:49;21.95;;;19.95;;
19675;SDS011;39539;52.202;9.876;2023-08-31T05:02:14;22.92;;;20.75;;
19675;SDS011;39539;52.202;9.876;2023-08-31T05:04:40;23.38;;;21.10;;
19675;SDS011;39539;52.202;9.876;2023-08-31T05:07:05;23.20;;;21.15;;
19675;SDS011;39539;52.202;9.876;2023-08-31T05:09:30;23.15;;;21.02;;
19675;SDS011;39539;52.202;9.876;2023-08-31T05:12:00;23.17;;;21.13;;
19675;SDS011;39539;52.202;9.876;2023-08-31T05:14:27;23.17;;;20.92;;
19675;SDS011;39539;52.202;9.876;2023-08-31T05:16:53;22.30;;;20.35;;
19675;SDS011;39539;52.202;9.876;2023-08-31T05:19:18;23.10;;;20.58;;
19675;SDS011;39539;52.202;9.876;2023-08-31T05:21:43;21.80;;;19.58;;
19675;SDS011;39539;52.202;9.876;2023-08-31T05:24:09;22.42;;;20.10;;
19675;SDS011;39539;52.202;9.876;2023-08-31T05:26:43;21.85;;;19.88;;
19675;SDS011;39539;52.202;9.876;2023-08-31T05:29:09;21.67;;;20.02;;
19675;SDS011;39539;52.202;9.876;2023-08-31T05:31:35;21.88;;;20.10;;
19675;SDS011;39539;52.202;9.876;2023-08-31T05:34:02;20.92;;;19.40;;
19675;SDS011;39539;52.202;9.876;2023-08-31T05:36:27;20.65;;;18.95;;
19675;SDS011;39539;52.202;9.876;2023-08-31T05:38:52;22.13;;;20.23;;
19675;SDS011;39539;52.202;9.876;2023-08-31T05:41:18;20.40;;;18.65;;
19675;SDS011;39539;52.202;9.876;2023-08-31T05:43:43;21.83;;;19.95;;
19675;SDS011;39539;52.202;9.876;2023-08-31T05:46:08;20.77;;;19.20;;
19675;SDS011;39539;52.202;9.876;2023-08-31T05:48:34;20.05;;;18.45;;
19675;SDS011;39539;52.202;9.876;2023-08-31T05:51:01;20.75;;;19.08;;
19675;SDS011;39539;52.202;9.876;2023-08-31T05:53:29;19.92;;;18.38;;
19675;SDS011;39539;52.202;9.876;2023-08-31T05:55:55;19.85;;;18.17;;
19675;SDS011;39539;52.202;9.876;2023-08-31T05:58:28;19.60;;;18.20;;
19675;SDS011;39539;52.202;9.876;2023-08-31T06:01:03;22.08;;;20.02;;
19675;SDS011;39539;52.202;9.876;2023-08-31T06:03:30;21.65;;;19.88;;
19675;SDS011;39539;52.202;9.876;2023-08-31T06:05:57;21.02;;;19.52;;
19675;SDS011;39539;52.202;9.876;2023-08-31T06:08:27;18.60;;;17.10;;
19675;SDS011;39539;52.202;9.876;2023-08-31T06:10:52;16.95;;;15.55;;
19675;SDS011;39539;52.202;9.876;2023-08-31T06:13:17;15.32;;;14.32;;
19675;SDS011;39539;52.202;9.876;2023-08-31T06:15:43;14.15;;;13.20;;
19675;SDS011;39539;52.202;9.876;2023-08-31T06:18:09;12.60;;;11.77;;
19675;SDS011;39539;52.202;9.876;2023-08-31T06:20:35;11.45;;;10.65;;
19675;SDS011;39539;52.202;9.876;2023-08-31T06:23:01;10.73;;;9.93;;
19675;SDS011;39539;52.202;9.876;2023-08-31T06:25:27;10.73;;;9.93;;
19675;SDS011;39539;52.202;9.876;2023-08-31T06:27:53;9.00;;;8.40;;
19675;SDS011;39539;52.202;9.876;2023-08-31T06:30:18;9.32;;;8.73;;
19675;SDS011;39539;52.202;9.876;2023-08-31T06:32:44;8.82;;;8.13;;
19675;SDS011;39539;52.202;9.876;2023-08-31T06:35:11;8.77;;;8.20;;
19675;SDS011;39539;52.202;9.876;2023-08-31T06:37:39;9.23;;;8.55;;
19675;SDS011;39539;52.202;9.876;2023-08-31T06:40:08;9.52;;;8.73;;
19675;SDS011;39539;52.202;9.876;2023-08-31T06:42:38;10.60;;;9.80;;
19675;SDS011;39539;52.202;9.876;2023-08-31T06:45:04;10.07;;;9.38;;
19675;SDS011;39539;52.202;9.876;2023-08-31T06:47:31;9.65;;;9.05;;
19675;SDS011;39539;52.202;9.876;2023-08-31T06:49:58;9.75;;;9.05;;
19675;SDS011;39539;52.202;9.876;2023-08-31T06:52:25;9.63;;;9.02;;
19675;SDS011;39539;52.202;9.876;2023-08-31T06:54:53;9.60;;;8.90;;
19675;SDS011;39539;52.202;9.876;2023-08-31T06:57:23;9.60;;;8.85;;
19675;SDS011;39539;52.202;9.876;2023-08-31T06:59:50;9.27;;;8.57;;
19675;SDS011;39539;52.202;9.876;2023-08-31T07:02:16;9.52;;;8.93;;
19675;SDS011;39539;52.202;9.876;2023-08-31T07:04:41;9.40;;;8.70;;
19675;SDS011;39539;52.202;9.876;2023-08-31T07:07:07;9.20;;;8.60;;
19675;SDS011;39539;52.202;9.876;2023-08-31T07:09:34;9.48;;;8.73;;
19675;SDS011;39539;52.202;9.876;2023-08-31T07:12:02;9.07;;;8.50;;
19675;SDS011;39539;52.202;9.876;2023-08-31T07:14:28;8.93;;;8.43;;
19675;SDS011;39539;52.202;9.876;2023-08-31T07:16:53;9.10;;;8.40;;
19675;SDS011;39539;52.202;9.876;2023-08-31T07:19:19;8.00;;;7.50;;
19675;SDS011;39539;52.202;9.876;2023-08-31T07:21:44;7.32;;;6.88;;
19675;SDS011;39539;52.202;9.876;2023-08-31T07:24:10;6.30;;;5.90;;
19675;SDS011;39539;52.202;9.876;2023-08-31T07:26:35;6.72;;;6.22;;
19675;SDS011;39539;52.202;9.876;2023-08-31T07:29:01;5.57;;;5.25;;
19675;SDS011;39539;52.202;9.876;2023-08-31T07:31:29;5.88;;;5.47;;
19675;SDS011;39539;52.202;9.876;2023-08-31T07:33:55;5.97;;;5.53;;
19675;SDS011;39539;52.202;9.876;2023-08-31T07:36:21;4.75;;;4.35;;
19675;SDS011;39539;52.202;9.876;2023-08-31T07:38:46;4.55;;;4.25;;
19675;SDS011;39539;52.202;9.876;2023-08-31T07:41:11;4.68;;;4.20;;
19675;SDS011;39539;52.202;9.876;2023-08-31T07:43:37;4.93;;;4.53;;
19675;SDS011;39539;52.202;9.876;2023-08-31T07:46:02;4.78;;;4.47;;
19675;SDS011;39539;52.202;9.876;2023-08-31T07:48:28;4.65;;;4.35;;
19675;SDS011;39539;52.202;9.876;2023-08-31T07:50:53;4.78;;;4.38;;
19675;SDS011;39539;52.202;9.876;2023-08-31T07:53:20;4.57;;;4.28;;
19675;SDS011;39539;52.202;9.876;2023-08-31T07:55:54;4.57;;;4.18;;
19675;SDS011;39539;52.202;9.876;2023-08-31T07:58:21;3.95;;;3.67;;
19675;SDS011;39539;52.202;9.876;2023-08-31T08:00:47;4.10;;;3.80;;
19675;SDS011;39539;52.202;9.876;2023-08-31T08:03:13;4.15;;;3.85;;
19675;SDS011;39539;52.202;9.876;2023-08-31T08:05:41;3.88;;;3.45;;
19675;SDS011;39539;52.202;9.876;2023-08-31T08:08:07;3.75;;;3.13;;
19675;SDS011;39539;52.202;9.876;2023-08-31T08:10:32;3.15;;;2.95;;
19675;SDS011;39539;52.202;9.876;2023-08-31T08:12:58;2.92;;;2.72;;
19675;SDS011;39539;52.202;9.876;2023-08-31T08:15:23;2.70;;;2.60;;
19675;SDS011;39539;52.202;9.876;2023-08-31T08:17:49;3.10;;;2.90;;
19675;SDS011;39539;52.202;9.876;2023-08-31T08:20:16;3.03;;;2.80;;
19675;SDS011;39539;52.202;9.876;2023-08-31T08:22:41;3.47;;;3.17;;
19675;SDS011;39539;52.202;9.876;2023-08-31T08:25:07;2.88;;;2.67;;
19675;SDS011;39539;52.202;9.876;2023-08-31T08:27:37;2.95;;;2.70;;
19675;SDS011;39539;52.202;9.876;2023-08-31T08:30:03;3.00;;;2.80;;
19675;SDS011;39539;52.202;9.876;2023-08-31T08:32:29;3.53;;;3.22;;
19675;SDS011;39539;52.202;9.876;2023-08-31T08:34:54;2.97;;;2.53;;
19675;SDS011;39539;52.202;9.876;2023-08-31T08:37:20;3.40;;;3.10;;
19675;SDS011;39539;52.202;9.876;2023-08-31T08:39:49;3.22;;;3.03;;
19675;SDS011;39539;52.202;9.876;2023-08-31T08:42:15;3.33;;;3.08;;
19675;SDS011;39539;52.202;9.876;2023-08-31T08:44:49;4.45;;;4.07;;
19675;SDS011;39539;52.202;9.876;2023-08-31T08:47:15;3.63;;;3.33;;
19675;SDS011;39539;52.202;9.876;2023-08-31T08:49:42;6.22;;;3.10;;
19675;SDS011;39539;52.202;9.876;2023-08-31T08:52:10;3.08;;;2.85;;
19675;SDS011;39539;52.202;9.876;2023-08-31T08:54:54;3.10;;;2.78;;
19675;SDS011;39539;52.202;9.876;2023-08-31T08:57:21;2.50;;;2.30;;
19675;SDS011;39539;52.202;9.876;2023-08-31T08:59:48;2.50;;;2.28;;
19675;SDS011;39539;52.202;9.876;2023-08-31T09:02:15;2.40;;;2.20;;
19675;SDS011;39539;52.202;9.876;2023-08-31T09:04:49;2.80;;;2.00;;
19675;SDS011;39539;52.202;9.876;2023-08-31T09:07:19;2.78;;;2.25;;
19675;SDS011;39539;52.202;9.876;2023-08-31T09:09:55;2.65;;;1.90;;
19675;SDS011;39539;52.202;9.876;2023-08-31T09:12:22;2.83;;;2.00;;
19675;SDS011;39539;52.202;9.876;2023-08-31T09:15:04;2.15;;;1.63;;
19675;SDS011;39539;52.202;9.876;2023-08-31T09:17:48;2.75;;;1.90;;
19675;SDS011;39539;52.202;9.876;2023-08-31T09:20:14;2.72;;;2.00;;
19675;SDS011;39539;52.202;9.876;2023-08-31T09:22:42;2.58;;;2.38;;
19675;SDS011;39539;52.202;9.876;2023-08-31T09:25:11;2.53;;;2.33;;
19675;SDS011;39539;52.202;9.876;2023-08-31T09:27:37;2.58;;;2.38;;
19675;SDS011;39539;52.202;9.876;2023-08-31T09:30:04;2.80;;;2.50;;
19675;SDS011;39539;52.202;9.876;2023-08-31T09:32:35;2.28;;;2.08;;
19675;SDS011;39539;52.202;9.876;2023-08-31T09:35:01;2.63;;;2.22;;
19675;SDS011;39539;52.202;9.876;2023-08-31T09:37:30;3.10;;;2.05;;
19675;SDS011;39539;52.202;9.876;2023-08-31T09:39:55;2.78;;;2.25;;
19675;SDS011;39539;52.202;9.876;2023-08-31T09:42:20;3.17;;;2.22;;
19675;SDS011;39539;52.202;9.876;2023-08-31T09:44:47;2.70;;;2.35;;
19675;SDS011;39539;52.202;9.876;2023-08-31T09:47:15;3.15;;;2.17;;
19675;SDS011;39539;52.202;9.876;2023-08-31T09:49:42;2.38;;;2.25;;
19675;SDS011;39539;52.202;9.876;2023-08-31T09:52:09;2.42;;;2.13;;
19675;SDS011;39539;52.202;9.876;2023-08-31T09:54:36;1.63;;;1.52;;
19675;SDS011;39539;52.202;9.876;2023-08-31T09:57:02;2.10;;;1.70;;
19675;SDS011;39539;52.202;9.876;2023-08-31T09:59:29;1.60;;;1.42;;
19675;SDS011;39539;52.202;9.876;2023-08-31T10:01:58;3.42;;;2.05;;
19675;SDS011;39539;52.202;9.876;2023-08-31T10:04:26;2.13;;;1.73;;
19675;SDS011;39539;52.202;9.876;2023-08-31T10:06:55;2.63;;;1.70;;
19675;SDS011;39539;52.202;9.876;2023-08-31T10:09:20;1.92;;;1.70;;
19675;SDS011;39539;52.202;9.876;2023-08-31T10:11:46;2.65;;;1.67;;
19675;SDS011;39539;52.202;9.876;2023-08-31T10:14:14;1.90;;;1.80;;
19675;SDS011;39539;52.202;9.876;2023-08-31T10:16:42;3.17;;;2.03;;
19675;SDS011;39539;52.202;9.876;2023-08-31T10:19:09;2.50;;;2.20;;
19675;SDS011;39539;52.202;9.876;2023-08-31T10:21:34;2.45;;;1.90;;
19675;SDS011;39539;52.202;9.876;2023-08-31T10:24:00;2.80;;;1.80;;
19675;SDS011;39539;52.202;9.876;2023-08-31T10:26:29;2.53;;;1.60;;
19675;SDS011;39539;52.202;9.876;2023-08-31T10:28:56;2.78;;;1.73;;
19675;SDS011;39539;52.202;9.876;2023-08-31T10:31:22;1.65;;;1.55;;
19675;SDS011;39539;52.202;9.876;2023-08-31T10:33:55;2.40;;;2.20;;
19675;SDS011;39539;52.202;9.876;2023-08-31T10:39:20;2.38;;;2.17;;
19675;SDS011;39539;52.202;9.876;2023-08-31T10:41:52;2.95;;;2.25;;
19675;SDS011;39539;52.202;9.876;2023-08-31T10:44:20;2.20;;;2.10;;
19675;SDS011;39539;52.202;9.876;2023-08-31T10:46:46;2.95;;;2.75;;
19675;SDS011;39539;52.202;9.876;2023-08-31T10:49:13;2.65;;;2.55;;
19675;SDS011;39539;52.202;9.876;2023-08-31T10:51:41;2.42;;;2.22;;
19675;SDS011;39539;52.202;9.876;2023-08-31T10:54:23;2.47;;;2.28;;
19675;SDS011;39539;52.202;9.876;2023-08-31T11:02:08;2.33;;;2.13;;
19675;SDS011;39539;52.202;9.876;2023-08-31T11:04:52;3.05;;;2.78;;
19675;SDS011;39539;52.202;9.876;2023-08-31T11:07:19;2.53;;;2.33;;
19675;SDS011;39539;52.202;9.876;2023-08-31T11:09:49;2.55;;;2.35;;
19675;SDS011;39539;52.202;9.876;2023-08-31T11:12:14;5.60;;;3.08;;
19675;SDS011;39539;52.202;9.876;2023-08-31T11:14:40;3.00;;;2.80;;
19675;SDS011;39539;52.202;9.876;2023-08-31T11:17:06;3.33;;;3.10;;
19675;SDS011;39539;52.202;9.876;2023-08-31T11:19:32;2.97;;;2.78;;
19675;SDS011;39539;52.202;9.876;2023-08-31T11:22:00;3.97;;;3.05;;
19675;SDS011;39539;52.202;9.876;2023-08-31T11:24:27;3.60;;;3.30;;
19675;SDS011;39539;52.202;9.876;2023-08-31T11:26:54;3.38;;;3.10;;
19675;SDS011;39539;52.202;9.876;2023-08-31T11:29:20;3.85;;;3.55;;
19675;SDS011;39539;52.202;9.876;2023-08-31T11:31:46;3.42;;;3.13;;
19675;SDS011;39539;52.202;9.876;2023-08-31T11:34:14;2.90;;;2.72;;
19675;SDS011;39539;52.202;9.876;2023-08-31T11:36:41;3.33;;;3.13;;
19675;SDS011;39539;52.202;9.876;2023-08-31T11:39:07;3.42;;;3.15;;
19675;SDS011;39539;52.202;9.876;2023-08-31T11:41:34;3.92;;;3.22;;
19675;SDS011;39539;52.202;9.876;2023-08-31T11:44:03;3.87;;;3.57;;
19675;SDS011;39539;52.202;9.876;2023-08-31T11:46:30;3.63;;;3.28;;
19675;SDS011;39539;52.202;9.876;2023-08-31T11:48:56;3.42;;;3.13;;
19675;SDS011;39539;52.202;9.876;2023-08-31T11:51:23;3.33;;;3.10;;
19675;SDS011;39539;52.202;9.876;2023-08-31T11:53:49;3.10;;;2.90;;
19675;SDS011;39539;52.202;9.876;2023-08-31T11:56:14;2.72;;;2.53;;
19675;SDS011;39539;52.202;9.876;2023-08-31T11:58:41;3.00;;;2.80;;
19675;SDS011;39539;52.202;9.876;2023-08-31T12:01:08;2.80;;;2.50;;
19675;SDS011;39539;52.202;9.876;2023-08-31T12:03:43;3.00;;;2.80;;
19675;SDS011;39539;52.202;9.876;2023-08-31T12:06:16;2.88;;;2.58;;
19675;SDS011;39539;52.202;9.876;2023-08-31T12:08:45;3.10;;;2.80;;
19675;SDS011;39539;52.202;9.876;2023-08-31T12:11:11;2.80;;;2.60;;
19675;SDS011;39539;52.202;9.876;2023-08-31T12:13:37;2.65;;;2.42;;
19675;SDS011;39539;52.202;9.876;2023-08-31T12:16:02;2.35;;;2.20;;
19675;SDS011;39539;52.202;9.876;2023-08-31T12:18:30;2.72;;;2.20;;
19675;SDS011;39539;52.202;9.876;2023-08-31T12:20:58;2.40;;;1.95;;
19675;SDS011;39539;52.202;9.876;2023-08-31T12:23:24;2.08;;;1.90;;
19675;SDS011;39539;52.202;9.876;2023-08-31T12:25:51;2.50;;;2.30;;
19675;SDS011;39539;52.202;9.876;2023-08-31T12:28:18;2.15;;;2.05;;
19675;SDS011;39539;52.202;9.876;2023-08-31T12:30:49;2.30;;;2.10;;
19675;SDS011;39539;52.202;9.876;2023-08-31T12:33:16;2.10;;;2.00;;
19675;SDS011;39539;52.202;9.876;2023-08-31T12:35:43;1.60;;;1.50;;
19675;SDS011;39539;52.202;9.876;2023-08-31T12:38:09;2.05;;;1.50;;
19675;SDS011;39539;52.202;9.876;2023-08-31T12:40:34;1.77;;;1.50;;
19675;SDS011;39539;52.202;9.876;2023-08-31T12:42:59;2.90;;;1.38;;
19675;SDS011;39539;52.202;9.876;2023-08-31T12:45:25;0.70;;;0.70;;
19675;SDS011;39539;52.202;9.876;2023-08-31T12:47:50;1.13;;;0.98;;
19675;SDS011;39539;52.202;9.876;2023-08-31T12:50:16;0.93;;;0.68;;
19675;SDS011;39539;52.202;9.876;2023-08-31T12:52:44;1.30;;;0.70;;
19675;SDS011;39539;52.202;9.876;2023-08-31T12:55:11;0.80;;;0.80;;
19675;SDS011;39539;52.202;9.876;2023-08-31T12:57:37;1.13;;;1.02;;
19675;SDS011;39539;52.202;9.876;2023-08-31T13:00:03;1.00;;;0.90;;
19675;SDS011;39539;52.202;9.876;2023-08-31T13:02:30;1.20;;;1.10;;
19675;SDS011;39539;52.202;9.876;2023-08-31T13:04:56;0.80;;;0.80;;
19675;SDS011;39539;52.202;9.876;2023-08-31T13:07:21;1.40;;;1.20;;
19675;SDS011;39539;52.202;9.876;2023-08-31T13:09:49;1.05;;;0.85;;
19675;SDS011;39539;52.202;9.876;2023-08-31T13:12:15;1.00;;;0.90;;
19675;SDS011;39539;52.202;9.876;2023-08-31T13:14:43;1.58;;;0.93;;
19675;SDS011;39539;52.202;9.876;2023-08-31T13:17:09;1.25;;;0.70;;
19675;SDS011;39539;52.202;9.876;2023-08-31T13:19:34;2.72;;;0.93;;
19675;SDS011;39539;52.202;9.876;2023-08-31T13:22:00;2.03;;;1.02;;
19675;SDS011;39539;52.202;9.876;2023-08-31T13:24:25;3.50;;;1.30;;
19675;SDS011;39539;52.202;9.876;2023-08-31T13:26:50;1.33;;;1.00;;
19675;SDS011;39539;52.202;9.876;2023-08-31T13:29:16;1.23;;;1.00;;
19675;SDS011;39539;52.202;9.876;2023-08-31T13:31:42;1.33;;;1.00;;
19675;SDS011;39539;52.202;9.876;2023-08-31T13:34:07;1.35;;;1.15;;
19675;SDS011;39539;52.202;9.876;2023-08-31T13:36:33;1.92;;;1.02;;
19675;SDS011;39539;52.202;9.876;2023-08-31T13:38:59;1.27;;;1.17;;
19675;SDS011;39539;52.202;9.876;2023-08-31T13:41:25;1.92;;;1.00;;
19675;SDS011;39539;52.202;9.876;2023-08-31T13:43:50;1.40;;;1.05;;
19675;SDS011;39539;52.202;9.876;2023-08-31T13:46:23;1.58;;;1.30;;
19675;SDS011;39539;52.202;9.876;2023-08-31T13:48:48;1.23;;;1.00;;
19675;SDS011;39539;52.202;9.876;2023-08-31T13:51:14;1.83;;;0.90;;
19675;SDS011;39539;52.202;9.876;2023-08-31T13:53:42;1.33;;;1.17;;
19675;SDS011;39539;52.202;9.876;2023-08-31T13:56:08;1.00;;;0.80;;
19675;SDS011;39539;52.202;9.876;2023-08-31T13:58:34;1.37;;;0.80;;
19675;SDS011;39539;52.202;9.876;2023-08-31T14:01:03;0.80;;;0.80;;
19675;SDS011;39539;52.202;9.876;2023-08-31T14:03:29;0.90;;;0.60;;
19675;SDS011;39539;52.202;9.876;2023-08-31T14:05:54;0.77;;;0.70;;
19675;SDS011;39539;52.202;9.876;2023-08-31T14:08:20;2.53;;;0.75;;
19675;SDS011;39539;52.202;9.876;2023-08-31T14:10:45;0.95;;;0.70;;
19675;SDS011;39539;52.202;9.876;2023-08-31T14:13:10;1.58;;;0.70;;
19675;SDS011;39539;52.202;9.876;2023-08-31T14:15:37;1.40;;;0.65;;
19675;SDS011;39539;52.202;9.876;2023-08-31T14:18:09;1.33;;;0.77;;
19675;SDS011;39539;52.202;9.876;2023-08-31T14:20:35;1.88;;;0.80;;
19675;SDS011;39539;52.202;9.876;2023-08-31T14:23:00;0.70;;;0.60;;
19675;SDS011;39539;52.202;9.876;2023-08-31T14:25:25;0.55;;;0.50;;
19675;SDS011;39539;52.202;9.876;2023-08-31T14:27:52;1.15;;;0.70;;
19675;SDS011;39539;52.202;9.876;2023-08-31T14:30:17;1.05;;;0.57;;
19675;SDS011;39539;52.202;9.876;2023-08-31T14:32:43;0.60;;;0.57;;
19675;SDS011;39539;52.202;9.876;2023-08-31T14:35:08;1.80;;;0.63;;
19675;SDS011;39539;52.202;9.876;2023-08-31T14:37:34;0.70;;;0.70;;
19675;SDS011;39539;52.202;9.876;2023-08-31T14:39:59;0.70;;;0.70;;
19675;SDS011;39539;52.202;9.876;2023-08-31T14:42:24;1.13;;;0.63;;
19675;SDS011;39539;52.202;9.876;2023-08-31T14:44:50;1.08;;;0.60;;
19675;SDS011;39539;52.202;9.876;2023-08-31T14:47:16;3.97;;;1.00;;
19675;SDS011;39539;52.202;9.876;2023-08-31T14:49:41;2.33;;;0.90;;